CheckWX is a tool to help pilots better visualize weather data.  It is not intended as a substitute for an official pre-flight weather briefing.

04:40:43 UTC

CYZH TAF
Slave Lake Airport
Slave Lake, Canada
TAF CYZH 230038Z 2301/2313 30005KT P6SM SKC PROB40 2301/2313 1/2SM FZFG VV002 RMK FCST BASED ON AUTO OBS. NXT FCST BY 230700Z

Mar-23@
01:00 UTC

Mar-23 @ 01:00 UTC

Mar-23@
13:00 UTC

Mar-23 @ 13:00 UTC

TAF CYZH 230038Z 2301/2313 30005KT P6SM SKC
Wind
  • 300° at 5 KTS
Cloud Levels
  • Clear skies

Mar-23@
01:00 UTC

Mar-23 @ 01:00 UTC

Mar-23@
13:00 UTC

Mar-23 @ 13:00 UTC

PROB40 2301/2313 1/2SM FZFG VV002 RMK FCST BASED ON AUTO OBS. NXT FCST BY 230700Z

Probable - 40% Likelihood

Probable - 40% Likelihood during this time.

Conditions
Freezing Fog
Cloud Levels
  • Vertical visibility at 200' AGL